sensor_id;sensor_type;location;lat;lon;timestamp;temperature;humidity
45803;DHT22;31504;51.716;9.184;2023-12-07T00:01:16;20.10;45.10
45803;DHT22;31504;51.716;9.184;2023-12-07T00:04:17;20.10;45.00
45803;DHT22;31504;51.716;9.184;2023-12-07T00:07:17;20.10;45.00
45803;DHT22;31504;51.716;9.184;2023-12-07T00:10:18;20.10;45.00
45803;DHT22;31504;51.716;9.184;2023-12-07T00:13:18;20.10;45.00
45803;DHT22;31504;51.716;9.184;2023-12-07T00:16:18;20.10;45.20
45803;DHT22;31504;51.716;9.184;2023-12-07T00:19:19;20.10;45.20
45803;DHT22;31504;51.716;9.184;2023-12-07T00:22:20;20.10;45.20
45803;DHT22;31504;51.716;9.184;2023-12-07T00:25:20;20.10;45.30
45803;DHT22;31504;51.716;9.184;2023-12-07T00:28:21;20.10;45.30
45803;DHT22;31504;51.716;9.184;2023-12-07T00:31:21;20.00;45.50
45803;DHT22;31504;51.716;9.184;2023-12-07T00:34:22;19.90;45.50
45803;DHT22;31504;51.716;9.184;2023-12-07T00:37:23;19.90;45.50
45803;DHT22;31504;51.716;9.184;2023-12-07T00:40:23;19.90;45.50
45803;DHT22;31504;51.716;9.184;2023-12-07T00:43:24;19.80;45.40
45803;DHT22;31504;51.716;9.184;2023-12-07T00:46:26;19.90;45.40
45803;DHT22;31504;51.716;9.184;2023-12-07T00:49:26;19.90;45.30
45803;DHT22;31504;51.716;9.184;2023-12-07T00:52:26;19.80;45.30
45803;DHT22;31504;51.716;9.184;2023-12-07T00:55:27;19.80;45.20
45803;DHT22;31504;51.716;9.184;2023-12-07T00:58:27;19.80;45.20
45803;DHT22;31504;51.716;9.184;2023-12-07T01:01:28;19.80;45.20
45803;DHT22;31504;51.716;9.184;2023-12-07T01:04:29;19.80;45.20
45803;DHT22;31504;51.716;9.184;2023-12-07T01:07:29;19.80;45.10
45803;DHT22;31504;51.716;9.184;2023-12-07T01:10:30;19.80;45.00
45803;DHT22;31504;51.716;9.184;2023-12-07T01:13:30;19.80;45.00
45803;DHT22;31504;51.716;9.184;2023-12-07T01:16:31;19.80;45.00
45803;DHT22;31504;51.716;9.184;2023-12-07T01:19:31;19.80;45.00
45803;DHT22;31504;51.716;9.184;2023-12-07T01:22:32;19.80;44.90
45803;DHT22;31504;51.716;9.184;2023-12-07T01:25:32;19.70;44.90
45803;DHT22;31504;51.716;9.184;2023-12-07T01:28:32;19.70;44.90
45803;DHT22;31504;51.716;9.184;2023-12-07T01:31:34;19.80;44.90
45803;DHT22;31504;51.716;9.184;2023-12-07T01:34:34;19.80;44.80
45803;DHT22;31504;51.716;9.184;2023-12-07T01:37:35;19.80;44.70
45803;DHT22;31504;51.716;9.184;2023-12-07T01:40:35;19.70;44.70
45803;DHT22;31504;51.716;9.184;2023-12-07T01:43:35;19.70;44.70
45803;DHT22;31504;51.716;9.184;2023-12-07T01:46:36;19.70;44.80
45803;DHT22;31504;51.716;9.184;2023-12-07T01:49:36;19.70;44.70
45803;DHT22;31504;51.716;9.184;2023-12-07T01:52:38;19.70;44.70
45803;DHT22;31504;51.716;9.184;2023-12-07T01:55:40;19.70;44.70
45803;DHT22;31504;51.716;9.184;2023-12-07T01:58:41;19.70;44.60
45803;DHT22;31504;51.716;9.184;2023-12-07T02:01:41;19.70;44.60
45803;DHT22;31504;51.716;9.184;2023-12-07T02:04:43;19.70;44.60
45803;DHT22;31504;51.716;9.184;2023-12-07T02:07:43;19.70;44.60
45803;DHT22;31504;51.716;9.184;2023-12-07T02:10:44;19.70;44.60
45803;DHT22;31504;51.716;9.184;2023-12-07T02:13:44;19.70;44.60
45803;DHT22;31504;51.716;9.184;2023-12-07T02:16:46;19.70;44.60
45803;DHT22;31504;51.716;9.184;2023-12-07T02:19:50;19.70;44.50
45803;DHT22;31504;51.716;9.184;2023-12-07T02:22:53;19.70;44.50
45803;DHT22;31504;51.716;9.184;2023-12-07T02:25:54;19.70;44.50
45803;DHT22;31504;51.716;9.184;2023-12-07T02:28:54;19.70;44.50
45803;DHT22;31504;51.716;9.184;2023-12-07T02:31:55;19.70;44.50
45803;DHT22;31504;51.716;9.184;2023-12-07T02:34:55;19.70;44.50
45803;DHT22;31504;51.716;9.184;2023-12-07T02:37:56;19.70;44.50
45803;DHT22;31504;51.716;9.184;2023-12-07T02:40:57;19.70;44.40
45803;DHT22;31504;51.716;9.184;2023-12-07T02:43:59;19.70;44.40
45803;DHT22;31504;51.716;9.184;2023-12-07T02:47:00;19.60;44.40
45803;DHT22;31504;51.716;9.184;2023-12-07T02:50:00;19.60;44.30
45803;DHT22;31504;51.716;9.184;2023-12-07T02:53:00;19.70;44.40
45803;DHT22;31504;51.716;9.184;2023-12-07T02:56:01;19.60;44.30
45803;DHT22;31504;51.716;9.184;2023-12-07T02:59:02;19.60;44.40
45803;DHT22;31504;51.716;9.184;2023-12-07T03:02:03;19.60;44.40
45803;DHT22;31504;51.716;9.184;2023-12-07T03:05:03;19.70;44.30
45803;DHT22;31504;51.716;9.184;2023-12-07T03:08:04;19.70;44.30
45803;DHT22;31504;51.716;9.184;2023-12-07T03:11:05;19.70;44.20
45803;DHT22;31504;51.716;9.184;2023-12-07T03:14:05;19.70;44.20
45803;DHT22;31504;51.716;9.184;2023-12-07T03:17:06;19.70;44.20
45803;DHT22;31504;51.716;9.184;2023-12-07T03:20:06;19.60;44.20
45803;DHT22;31504;51.716;9.184;2023-12-07T03:23:08;19.60;44.30
45803;DHT22;31504;51.716;9.184;2023-12-07T03:26:08;19.60;44.20
45803;DHT22;31504;51.716;9.184;2023-12-07T03:29:09;19.60;44.20
45803;DHT22;31504;51.716;9.184;2023-12-07T03:32:10;19.60;44.20
45803;DHT22;31504;51.716;9.184;2023-12-07T03:35:10;19.60;44.10
45803;DHT22;31504;51.716;9.184;2023-12-07T03:38:11;19.60;44.10
45803;DHT22;31504;51.716;9.184;2023-12-07T03:41:12;19.60;44.20
45803;DHT22;31504;51.716;9.184;2023-12-07T03:44:12;19.60;44.10
45803;DHT22;31504;51.716;9.184;2023-12-07T03:47:12;19.60;44.10
45803;DHT22;31504;51.716;9.184;2023-12-07T03:50:13;19.60;44.10
45803;DHT22;31504;51.716;9.184;2023-12-07T03:53:13;19.60;44.10
45803;DHT22;31504;51.716;9.184;2023-12-07T03:56:27;19.60;44.10
45803;DHT22;31504;51.716;9.184;2023-12-07T03:59:28;19.60;44.10
45803;DHT22;31504;51.716;9.184;2023-12-07T04:02:28;19.60;44.00
45803;DHT22;31504;51.716;9.184;2023-12-07T04:05:33;19.60;44.00
45803;DHT22;31504;51.716;9.184;2023-12-07T04:08:33;19.60;44.00
45803;DHT22;31504;51.716;9.184;2023-12-07T04:11:34;19.60;44.10
45803;DHT22;31504;51.716;9.184;2023-12-07T04:14:34;19.60;44.00
45803;DHT22;31504;51.716;9.184;2023-12-07T04:17:35;19.60;44.00
45803;DHT22;31504;51.716;9.184;2023-12-07T04:20:35;19.60;44.10
45803;DHT22;31504;51.716;9.184;2023-12-07T04:23:36;19.60;44.00
45803;DHT22;31504;51.716;9.184;2023-12-07T04:26:36;19.60;44.00
45803;DHT22;31504;51.716;9.184;2023-12-07T04:29:37;19.60;44.00
45803;DHT22;31504;51.716;9.184;2023-12-07T04:32:37;19.60;44.00
45803;DHT22;31504;51.716;9.184;2023-12-07T04:35:39;19.60;44.00
45803;DHT22;31504;51.716;9.184;2023-12-07T04:38:39;19.60;44.00
45803;DHT22;31504;51.716;9.184;2023-12-07T04:41:40;19.60;44.00
45803;DHT22;31504;51.716;9.184;2023-12-07T04:44:41;19.60;44.00
45803;DHT22;31504;51.716;9.184;2023-12-07T04:47:41;19.60;44.00
45803;DHT22;31504;51.716;9.184;2023-12-07T04:50:42;19.60;43.90
45803;DHT22;31504;51.716;9.184;2023-12-07T04:53:42;19.60;43.90
45803;DHT22;31504;51.716;9.184;2023-12-07T04:56:43;19.60;43.90
45803;DHT22;31504;51.716;9.184;2023-12-07T04:59:43;19.60;43.90
45803;DHT22;31504;51.716;9.184;2023-12-07T05:02:47;19.60;43.90
45803;DHT22;31504;51.716;9.184;2023-12-07T05:05:48;19.60;44.00
45803;DHT22;31504;51.716;9.184;2023-12-07T05:08:50;19.60;43.90
45803;DHT22;31504;51.716;9.184;2023-12-07T05:11:50;19.60;43.90
45803;DHT22;31504;51.716;9.184;2023-12-07T05:14:51;19.60;44.00
45803;DHT22;31504;51.716;9.184;2023-12-07T05:17:51;19.60;43.90
45803;DHT22;31504;51.716;9.184;2023-12-07T05:20:52;19.60;43.80
45803;DHT22;31504;51.716;9.184;2023-12-07T05:23:52;19.60;43.80
45803;DHT22;31504;51.716;9.184;2023-12-07T05:26:53;19.60;43.80
45803;DHT22;31504;51.716;9.184;2023-12-07T05:29:53;19.60;43.80
45803;DHT22;31504;51.716;9.184;2023-12-07T05:32:54;19.60;43.80
45803;DHT22;31504;51.716;9.184;2023-12-07T05:35:54;19.60;43.80
45803;DHT22;31504;51.716;9.184;2023-12-07T05:38:55;19.60;43.80
45803;DHT22;31504;51.716;9.184;2023-12-07T05:41:55;19.60;43.80
45803;DHT22;31504;51.716;9.184;2023-12-07T05:44:56;19.60;43.90
45803;DHT22;31504;51.716;9.184;2023-12-07T05:47:56;19.60;43.90
45803;DHT22;31504;51.716;9.184;2023-12-07T05:50:57;19.60;43.80
45803;DHT22;31504;51.716;9.184;2023-12-07T05:53:57;19.60;43.80
45803;DHT22;31504;51.716;9.184;2023-12-07T05:56:58;19.60;43.80
45803;DHT22;31504;51.716;9.184;2023-12-07T05:59:58;19.60;43.80
45803;DHT22;31504;51.716;9.184;2023-12-07T06:02:59;19.50;43.80
45803;DHT22;31504;51.716;9.184;2023-12-07T06:05:59;19.60;43.80
45803;DHT22;31504;51.716;9.184;2023-12-07T06:09:00;19.60;43.80
45803;DHT22;31504;51.716;9.184;2023-12-07T06:12:00;19.60;43.80
45803;DHT22;31504;51.716;9.184;2023-12-07T06:15:01;19.50;43.70
45803;DHT22;31504;51.716;9.184;2023-12-07T06:18:01;19.60;43.70
45803;DHT22;31504;51.716;9.184;2023-12-07T06:21:02;19.60;43.70
45803;DHT22;31504;51.716;9.184;2023-12-07T06:24:03;19.60;43.80
45803;DHT22;31504;51.716;9.184;2023-12-07T06:27:04;19.60;43.80
45803;DHT22;31504;51.716;9.184;2023-12-07T06:30:05;19.60;43.80
45803;DHT22;31504;51.716;9.184;2023-12-07T06:33:09;19.60;43.90
45803;DHT22;31504;51.716;9.184;2023-12-07T06:36:09;19.60;43.90
45803;DHT22;31504;51.716;9.184;2023-12-07T06:39:09;19.60;43.90
45803;DHT22;31504;51.716;9.184;2023-12-07T06:42:10;19.60;43.90
45803;DHT22;31504;51.716;9.184;2023-12-07T06:45:10;19.70;43.90
45803;DHT22;31504;51.716;9.184;2023-12-07T06:48:14;19.70;44.00
45803;DHT22;31504;51.716;9.184;2023-12-07T06:51:14;19.70;44.00
45803;DHT22;31504;51.716;9.184;2023-12-07T06:54:15;19.60;44.10
45803;DHT22;31504;51.716;9.184;2023-12-07T06:57:15;19.60;44.20
45803;DHT22;31504;51.716;9.184;2023-12-07T07:00:16;19.70;44.30
45803;DHT22;31504;51.716;9.184;2023-12-07T07:03:18;19.70;44.40
45803;DHT22;31504;51.716;9.184;2023-12-07T07:06:18;19.70;44.40
45803;DHT22;31504;51.716;9.184;2023-12-07T07:09:19;19.70;44.40
45803;DHT22;31504;51.716;9.184;2023-12-07T07:12:21;19.60;44.30
45803;DHT22;31504;51.716;9.184;2023-12-07T07:15:22;19.70;44.20
45803;DHT22;31504;51.716;9.184;2023-12-07T07:18:25;19.70;44.10
45803;DHT22;31504;51.716;9.184;2023-12-07T07:21:27;19.70;44.20
45803;DHT22;31504;51.716;9.184;2023-12-07T07:24:28;19.80;44.30
45803;DHT22;31504;51.716;9.184;2023-12-07T07:27:28;19.80;44.30
45803;DHT22;31504;51.716;9.184;2023-12-07T07:30:29;19.80;44.40
45803;DHT22;31504;51.716;9.184;2023-12-07T07:33:29;19.80;44.40
45803;DHT22;31504;51.716;9.184;2023-12-07T07:36:30;19.80;44.40
45803;DHT22;31504;51.716;9.184;2023-12-07T07:39:30;19.70;44.30
45803;DHT22;31504;51.716;9.184;2023-12-07T07:42:31;19.80;44.40
45803;DHT22;31504;51.716;9.184;2023-12-07T07:45:31;19.70;44.40
45803;DHT22;31504;51.716;9.184;2023-12-07T07:48:32;19.70;44.40
45803;DHT22;31504;51.716;9.184;2023-12-07T07:51:32;19.80;44.40
45803;DHT22;31504;51.716;9.184;2023-12-07T07:54:33;19.80;44.40
45803;DHT22;31504;51.716;9.184;2023-12-07T07:57:33;19.80;44.50
45803;DHT22;31504;51.716;9.184;2023-12-07T08:00:34;19.80;44.50
45803;DHT22;31504;51.716;9.184;2023-12-07T08:03:34;19.80;44.50
45803;DHT22;31504;51.716;9.184;2023-12-07T08:06:35;19.80;44.40
45803;DHT22;31504;51.716;9.184;2023-12-07T08:09:35;19.80;44.40
45803;DHT22;31504;51.716;9.184;2023-12-07T08:12:36;19.80;44.40
45803;DHT22;31504;51.716;9.184;2023-12-07T08:15:36;19.70;44.50
45803;DHT22;31504;51.716;9.184;2023-12-07T08:18:37;19.60;44.60
45803;DHT22;31504;51.716;9.184;2023-12-07T08:21:37;19.70;44.60
45803;DHT22;31504;51.716;9.184;2023-12-07T08:24:39;19.60;44.40
45803;DHT22;31504;51.716;9.184;2023-12-07T08:27:39;19.70;44.40
45803;DHT22;31504;51.716;9.184;2023-12-07T08:30:40;19.70;44.30
45803;DHT22;31504;51.716;9.184;2023-12-07T08:33:40;19.80;44.30
45803;DHT22;31504;51.716;9.184;2023-12-07T08:36:41;19.80;44.50
45803;DHT22;31504;51.716;9.184;2023-12-07T08:39:41;19.80;44.50
45803;DHT22;31504;51.716;9.184;2023-12-07T08:42:45;19.80;44.60
45803;DHT22;31504;51.716;9.184;2023-12-07T08:45:45;19.80;44.70
45803;DHT22;31504;51.716;9.184;2023-12-07T08:48:46;19.80;44.70
45803;DHT22;31504;51.716;9.184;2023-12-07T08:51:46;19.80;44.60
45803;DHT22;31504;51.716;9.184;2023-12-07T08:54:47;19.80;45.20
45803;DHT22;31504;51.716;9.184;2023-12-07T08:57:47;19.80;44.70
45803;DHT22;31504;51.716;9.184;2023-12-07T09:00:48;19.80;44.70
45803;DHT22;31504;51.716;9.184;2023-12-07T09:03:48;19.80;44.70
45803;DHT22;31504;51.716;9.184;2023-12-07T09:06:48;19.80;44.80
45803;DHT22;31504;51.716;9.184;2023-12-07T09:09:49;19.80;44.80
45803;DHT22;31504;51.716;9.184;2023-12-07T09:12:49;19.80;44.70
45803;DHT22;31504;51.716;9.184;2023-12-07T09:15:50;19.80;44.70
45803;DHT22;31504;51.716;9.184;2023-12-07T09:18:50;19.80;44.70
45803;DHT22;31504;51.716;9.184;2023-12-07T09:21:51;19.90;44.70
45803;DHT22;31504;51.716;9.184;2023-12-07T09:24:51;19.80;44.60
45803;DHT22;31504;51.716;9.184;2023-12-07T09:27:51;19.80;44.70
45803;DHT22;31504;51.716;9.184;2023-12-07T09:30:52;19.80;44.80
45803;DHT22;31504;51.716;9.184;2023-12-07T09:33:52;19.70;44.80
45803;DHT22;31504;51.716;9.184;2023-12-07T09:37:06;19.70;44.80
45803;DHT22;31504;51.716;9.184;2023-12-07T09:40:07;19.70;44.70
45803;DHT22;31504;51.716;9.184;2023-12-07T09:43:08;19.70;44.60
45803;DHT22;31504;51.716;9.184;2023-12-07T09:46:08;19.70;44.60
45803;DHT22;31504;51.716;9.184;2023-12-07T09:49:09;19.70;44.50
45803;DHT22;31504;51.716;9.184;2023-12-07T09:52:10;19.70;44.50
45803;DHT22;31504;51.716;9.184;2023-12-07T09:55:10;19.70;44.50
45803;DHT22;31504;51.716;9.184;2023-12-07T09:58:11;19.60;44.40
45803;DHT22;31504;51.716;9.184;2023-12-07T10:01:12;19.60;44.40
45803;DHT22;31504;51.716;9.184;2023-12-07T10:04:15;19.60;44.40
45803;DHT22;31504;51.716;9.184;2023-12-07T10:07:17;19.70;44.40
45803;DHT22;31504;51.716;9.184;2023-12-07T10:10:18;19.70;44.40
45803;DHT22;31504;51.716;9.184;2023-12-07T10:13:19;19.70;44.40
45803;DHT22;31504;51.716;9.184;2023-12-07T10:16:19;19.70;44.40
45803;DHT22;31504;51.716;9.184;2023-12-07T10:19:19;19.80;44.50
45803;DHT22;31504;51.716;9.184;2023-12-07T10:22:22;19.80;44.50
45803;DHT22;31504;51.716;9.184;2023-12-07T10:25:22;19.80;44.50
45803;DHT22;31504;51.716;9.184;2023-12-07T10:28:22;19.80;44.60
45803;DHT22;31504;51.716;9.184;2023-12-07T10:31:23;19.70;44.50
45803;DHT22;31504;51.716;9.184;2023-12-07T10:34:23;19.70;44.60
45803;DHT22;31504;51.716;9.184;2023-12-07T10:37:24;19.80;44.70
45803;DHT22;31504;51.716;9.184;2023-12-07T10:40:24;19.80;44.70
45803;DHT22;31504;51.716;9.184;2023-12-07T10:43:25;19.80;44.60
45803;DHT22;31504;51.716;9.184;2023-12-07T10:46:25;19.80;44.70
45803;DHT22;31504;51.716;9.184;2023-12-07T10:49:26;19.80;44.70
45803;DHT22;31504;51.716;9.184;2023-12-07T10:52:27;19.80;44.70
45803;DHT22;31504;51.716;9.184;2023-12-07T10:55:30;19.80;44.70
45803;DHT22;31504;51.716;9.184;2023-12-07T10:58:35;19.80;44.80
45803;DHT22;31504;51.716;9.184;2023-12-07T11:01:36;19.80;44.90
45803;DHT22;31504;51.716;9.184;2023-12-07T11:04:37;19.80;44.80
45803;DHT22;31504;51.716;9.184;2023-12-07T11:07:43;19.80;44.90
45803;DHT22;31504;51.716;9.184;2023-12-07T11:10:54;19.80;44.90
45803;DHT22;31504;51.716;9.184;2023-12-07T11:14:06;19.90;45.00
45803;DHT22;31504;51.716;9.184;2023-12-07T11:17:07;19.80;45.10
45803;DHT22;31504;51.716;9.184;2023-12-07T11:20:08;19.80;45.10
45803;DHT22;31504;51.716;9.184;2023-12-07T11:23:09;19.90;45.10
45803;DHT22;31504;51.716;9.184;2023-12-07T11:26:10;19.80;45.20
45803;DHT22;31504;51.716;9.184;2023-12-07T11:29:10;19.90;45.20
45803;DHT22;31504;51.716;9.184;2023-12-07T11:32:11;19.90;45.20
45803;DHT22;31504;51.716;9.184;2023-12-07T11:35:12;19.90;45.20
45803;DHT22;31504;51.716;9.184;2023-12-07T11:38:12;19.90;45.20
45803;DHT22;31504;51.716;9.184;2023-12-07T11:41:14;19.90;45.20
45803;DHT22;31504;51.716;9.184;2023-12-07T11:44:15;19.90;45.70
45803;DHT22;31504;51.716;9.184;2023-12-07T11:47:20;19.90;45.10
45803;DHT22;31504;51.716;9.184;2023-12-07T11:50:21;19.90;45.00
45803;DHT22;31504;51.716;9.184;2023-12-07T11:53:22;19.90;44.90
45803;DHT22;31504;51.716;9.184;2023-12-07T11:56:23;19.90;44.80
45803;DHT22;31504;51.716;9.184;2023-12-07T11:59:23;19.90;44.80
45803;DHT22;31504;51.716;9.184;2023-12-07T12:02:27;20.00;44.80
45803;DHT22;31504;51.716;9.184;2023-12-07T12:05:28;19.90;44.80
45803;DHT22;31504;51.716;9.184;2023-12-07T12:08:29;19.90;44.90
45803;DHT22;31504;51.716;9.184;2023-12-07T12:11:31;19.90;45.00
45803;DHT22;31504;51.716;9.184;2023-12-07T12:14:31;19.90;45.00
45803;DHT22;31504;51.716;9.184;2023-12-07T12:17:31;19.90;45.00
45803;DHT22;31504;51.716;9.184;2023-12-07T12:20:32;20.00;45.00
45803;DHT22;31504;51.716;9.184;2023-12-07T12:23:33;19.90;45.00
45803;DHT22;31504;51.716;9.184;2023-12-07T12:26:34;19.90;45.10
45803;DHT22;31504;51.716;9.184;2023-12-07T12:29:34;19.90;45.10
45803;DHT22;31504;51.716;9.184;2023-12-07T12:32:42;19.90;45.10
45803;DHT22;31504;51.716;9.184;2023-12-07T12:35:43;19.90;45.10
45803;DHT22;31504;51.716;9.184;2023-12-07T12:38:46;19.90;45.10
45803;DHT22;31504;51.716;9.184;2023-12-07T12:41:46;19.90;45.00
45803;DHT22;31504;51.716;9.184;2023-12-07T12:44:47;19.90;45.00
45803;DHT22;31504;51.716;9.184;2023-12-07T12:47:47;19.90;45.00
45803;DHT22;31504;51.716;9.184;2023-12-07T12:50:48;19.90;45.00
45803;DHT22;31504;51.716;9.184;2023-12-07T12:53:49;19.90;45.10
45803;DHT22;31504;51.716;9.184;2023-12-07T12:56:50;19.90;45.10
45803;DHT22;31504;51.716;9.184;2023-12-07T12:59:51;19.90;45.00
45803;DHT22;31504;51.716;9.184;2023-12-07T13:02:51;20.00;45.10
45803;DHT22;31504;51.716;9.184;2023-12-07T13:05:52;20.00;45.10
45803;DHT22;31504;51.716;9.184;2023-12-07T13:08:53;19.90;45.00
45803;DHT22;31504;51.716;9.184;2023-12-07T13:11:54;19.90;45.00
45803;DHT22;31504;51.716;9.184;2023-12-07T13:14:54;19.90;45.00
45803;DHT22;31504;51.716;9.184;2023-12-07T13:17:55;19.90;45.10
45803;DHT22;31504;51.716;9.184;2023-12-07T13:20:55;19.90;45.10
45803;DHT22;31504;51.716;9.184;2023-12-07T13:23:56;19.90;45.10
45803;DHT22;31504;51.716;9.184;2023-12-07T13:26:58;19.90;45.10
45803;DHT22;31504;51.716;9.184;2023-12-07T13:30:00;19.90;45.10
45803;DHT22;31504;51.716;9.184;2023-12-07T13:33:01;20.00;45.10
45803;DHT22;31504;51.716;9.184;2023-12-07T13:36:02;19.90;45.10
45803;DHT22;31504;51.716;9.184;2023-12-07T13:39:02;19.90;45.20
45803;DHT22;31504;51.716;9.184;2023-12-07T13:42:03;19.90;45.20
45803;DHT22;31504;51.716;9.184;2023-12-07T13:45:03;19.90;45.20
45803;DHT22;31504;51.716;9.184;2023-12-07T13:48:04;20.00;45.30
45803;DHT22;31504;51.716;9.184;2023-12-07T13:51:05;19.90;45.20
45803;DHT22;31504;51.716;9.184;2023-12-07T13:54:05;19.90;45.20
45803;DHT22;31504;51.716;9.184;2023-12-07T13:57:08;19.90;45.00
45803;DHT22;31504;51.716;9.184;2023-12-07T14:00:08;19.90;44.90
45803;DHT22;31504;51.716;9.184;2023-12-07T14:03:13;19.90;44.80
45803;DHT22;31504;51.716;9.184;2023-12-07T14:06:20;19.90;44.70
45803;DHT22;31504;51.716;9.184;2023-12-07T14:09:21;19.90;44.50
45803;DHT22;31504;51.716;9.184;2023-12-07T14:12:21;19.90;45.10
45803;DHT22;31504;51.716;9.184;2023-12-07T14:15:23;20.00;44.50
45803;DHT22;31504;51.716;9.184;2023-12-07T14:18:23;20.00;44.40
45803;DHT22;31504;51.716;9.184;2023-12-07T14:21:24;19.90;44.50
45803;DHT22;31504;51.716;9.184;2023-12-07T14:24:25;19.90;44.40
45803;DHT22;31504;51.716;9.184;2023-12-07T14:27:25;20.00;44.30
45803;DHT22;31504;51.716;9.184;2023-12-07T14:30:26;20.00;44.20
45803;DHT22;31504;51.716;9.184;2023-12-07T14:33:26;20.00;44.10
45803;DHT22;31504;51.716;9.184;2023-12-07T14:36:27;19.90;43.80
45803;DHT22;31504;51.716;9.184;2023-12-07T14:39:27;19.90;43.50
45803;DHT22;31504;51.716;9.184;2023-12-07T14:42:28;19.80;43.10
45803;DHT22;31504;51.716;9.184;2023-12-07T14:45:28;19.80;42.80
45803;DHT22;31504;51.716;9.184;2023-12-07T14:48:29;19.90;42.60
45803;DHT22;31504;51.716;9.184;2023-12-07T14:51:29;19.90;42.50
45803;DHT22;31504;51.716;9.184;2023-12-07T14:54:29;19.90;42.50
45803;DHT22;31504;51.716;9.184;2023-12-07T14:57:31;20.00;42.50
45803;DHT22;31504;51.716;9.184;2023-12-07T15:00:31;20.00;42.50
45803;DHT22;31504;51.716;9.184;2023-12-07T15:03:32;20.00;42.60
45803;DHT22;31504;51.716;9.184;2023-12-07T15:06:32;20.00;42.60
45803;DHT22;31504;51.716;9.184;2023-12-07T15:09:35;20.00;42.70
45803;DHT22;31504;51.716;9.184;2023-12-07T15:12:37;20.00;42.80
45803;DHT22;31504;51.716;9.184;2023-12-07T15:15:38;20.00;42.90
45803;DHT22;31504;51.716;9.184;2023-12-07T15:18:38;20.00;42.90
45803;DHT22;31504;51.716;9.184;2023-12-07T15:21:41;20.00;43.00
45803;DHT22;31504;51.716;9.184;2023-12-07T15:24:42;20.00;43.00
45803;DHT22;31504;51.716;9.184;2023-12-07T15:27:42;20.00;43.10
45803;DHT22;31504;51.716;9.184;2023-12-07T15:30:43;20.00;43.10
45803;DHT22;31504;51.716;9.184;2023-12-07T15:33:44;20.00;43.10
45803;DHT22;31504;51.716;9.184;2023-12-07T15:36:44;20.00;43.10
45803;DHT22;31504;51.716;9.184;2023-12-07T15:39:45;20.00;43.10
45803;DHT22;31504;51.716;9.184;2023-12-07T15:42:45;20.00;43.10
45803;DHT22;31504;51.716;9.184;2023-12-07T15:45:46;19.90;43.20
45803;DHT22;31504;51.716;9.184;2023-12-07T15:48:46;20.00;44.00
45803;DHT22;31504;51.716;9.184;2023-12-07T15:51:47;20.00;43.40
45803;DHT22;31504;51.716;9.184;2023-12-07T15:54:48;20.00;43.40
45803;DHT22;31504;51.716;9.184;2023-12-07T15:57:48;20.00;43.40
45803;DHT22;31504;51.716;9.184;2023-12-07T16:00:49;20.00;43.50
45803;DHT22;31504;51.716;9.184;2023-12-07T16:03:50;20.00;43.50
45803;DHT22;31504;51.716;9.184;2023-12-07T16:06:50;20.00;43.60
45803;DHT22;31504;51.716;9.184;2023-12-07T16:09:51;20.00;43.80
45803;DHT22;31504;51.716;9.184;2023-12-07T16:12:52;20.00;43.90
45803;DHT22;31504;51.716;9.184;2023-12-07T16:15:53;20.00;44.10
45803;DHT22;31504;51.716;9.184;2023-12-07T16:18:53;20.00;44.10
45803;DHT22;31504;51.716;9.184;2023-12-07T16:21:53;20.10;44.20
45803;DHT22;31504;51.716;9.184;2023-12-07T16:24:54;20.10;44.30
45803;DHT22;31504;51.716;9.184;2023-12-07T16:27:54;20.10;44.20
45803;DHT22;31504;51.716;9.184;2023-12-07T16:30:55;20.10;44.30
45803;DHT22;31504;51.716;9.184;2023-12-07T16:33:56;20.00;44.30
45803;DHT22;31504;51.716;9.184;2023-12-07T16:36:56;20.00;44.20
45803;DHT22;31504;51.716;9.184;2023-12-07T16:39:56;20.10;44.20
45803;DHT22;31504;51.716;9.184;2023-12-07T16:42:58;20.10;44.10
45803;DHT22;31504;51.716;9.184;2023-12-07T16:45:59;20.10;44.10
45803;DHT22;31504;51.716;9.184;2023-12-07T16:49:03;20.10;44.20
45803;DHT22;31504;51.716;9.184;2023-12-07T16:52:04;20.10;44.10
45803;DHT22;31504;51.716;9.184;2023-12-07T16:55:05;20.10;44.10
45803;DHT22;31504;51.716;9.184;2023-12-07T16:58:06;20.00;44.00
45803;DHT22;31504;51.716;9.184;2023-12-07T17:01:06;20.00;44.10
45803;DHT22;31504;51.716;9.184;2023-12-07T17:04:07;20.00;44.20
45803;DHT22;31504;51.716;9.184;2023-12-07T17:07:07;20.00;44.20
45803;DHT22;31504;51.716;9.184;2023-12-07T17:10:08;20.00;44.10
45803;DHT22;31504;51.716;9.184;2023-12-07T17:13:08;20.00;44.10
45803;DHT22;31504;51.716;9.184;2023-12-07T17:16:09;20.00;44.30
45803;DHT22;31504;51.716;9.184;2023-12-07T17:19:09;20.00;44.20
45803;DHT22;31504;51.716;9.184;2023-12-07T17:22:10;20.10;44.30
45803;DHT22;31504;51.716;9.184;2023-12-07T17:25:10;20.00;44.30
45803;DHT22;31504;51.716;9.184;2023-12-07T17:28:11;19.90;44.00
45803;DHT22;31504;51.716;9.184;2023-12-07T17:31:11;19.90;43.60
45803;DHT22;31504;51.716;9.184;2023-12-07T17:34:12;19.90;43.30
45803;DHT22;31504;51.716;9.184;2023-12-07T17:37:12;20.00;43.10
45803;DHT22;31504;51.716;9.184;2023-12-07T17:40:13;20.00;43.10
45803;DHT22;31504;51.716;9.184;2023-12-07T17:43:14;20.00;43.10
45803;DHT22;31504;51.716;9.184;2023-12-07T17:46:14;20.10;43.10
45803;DHT22;31504;51.716;9.184;2023-12-07T17:49:14;20.10;42.90
45803;DHT22;31504;51.716;9.184;2023-12-07T17:52:15;20.10;43.00
45803;DHT22;31504;51.716;9.184;2023-12-07T17:55:15;20.10;43.10
45803;DHT22;31504;51.716;9.184;2023-12-07T17:58:16;20.10;43.10
45803;DHT22;31504;51.716;9.184;2023-12-07T18:01:17;20.10;43.20
45803;DHT22;31504;51.716;9.184;2023-12-07T18:04:17;20.00;43.20
45803;DHT22;31504;51.716;9.184;2023-12-07T18:07:18;20.00;43.30
45803;DHT22;31504;51.716;9.184;2023-12-07T18:10:18;20.00;43.30
45803;DHT22;31504;51.716;9.184;2023-12-07T18:13:19;20.00;43.30
45803;DHT22;31504;51.716;9.184;2023-12-07T18:16:20;20.10;43.30
45803;DHT22;31504;51.716;9.184;2023-12-07T18:19:22;20.10;43.40
45803;DHT22;31504;51.716;9.184;2023-12-07T18:22:23;20.10;43.60
45803;DHT22;31504;51.716;9.184;2023-12-07T18:25:23;20.10;43.80
45803;DHT22;31504;51.716;9.184;2023-12-07T18:28:24;20.10;44.10
45803;DHT22;31504;51.716;9.184;2023-12-07T18:31:24;20.10;44.20
45803;DHT22;31504;51.716;9.184;2023-12-07T18:34:24;20.10;44.20
45803;DHT22;31504;51.716;9.184;2023-12-07T18:37:25;20.10;44.30
45803;DHT22;31504;51.716;9.184;2023-12-07T18:40:26;20.10;44.40
45803;DHT22;31504;51.716;9.184;2023-12-07T18:43:27;20.10;44.50
45803;DHT22;31504;51.716;9.184;2023-12-07T18:46:28;20.10;44.60
45803;DHT22;31504;51.716;9.184;2023-12-07T18:49:29;20.10;44.80
45803;DHT22;31504;51.716;9.184;2023-12-07T18:52:29;20.10;44.90
45803;DHT22;31504;51.716;9.184;2023-12-07T18:55:30;20.10;44.90
45803;DHT22;31504;51.716;9.184;2023-12-07T18:58:30;20.20;45.10
45803;DHT22;31504;51.716;9.184;2023-12-07T19:01:31;20.10;45.10